Terminal Aerodrome Forecast
Issued by NWS Sterling, VA

Current Version | Previous Version | Graphics & Text | Print | Product List | Glossary On
Versions: 1 2 3 4 5 6 7 8 9 10 11 12 13 14 15
000
FTUS41 KLWX 261700 RRA
TAFMRB
TAF
KMRB 261742Z 2618/2718 23005KT P6SM SCT050
     FM262300 19005KT P6SM BKN050
     FM271200 23004KT 6SM -SHRA VCTS FEW050CB SCT090
     FM271400 23005KT 5SM -SHRA VCTS BKN090CB BKN130=

USA.gov is the U.S. government's official web portal to all federal, state and local government web resources and services.